createdAt,value
2022-10-18T00:01:49.260Z,-10986.31
2022-10-18T00:04:55.391Z,-10985.88
2022-10-18T00:08:01.613Z,-10988.69
2022-10-18T00:11:09.533Z,-10975.22
2022-10-18T00:14:15.759Z,-10987.84
2022-10-18T00:17:21.877Z,-10992.63
2022-10-18T00:20:28.514Z,-10986.72
2022-10-18T00:23:37.086Z,-10996.25
2022-10-18T00:26:44.872Z,-10996.69
2022-10-18T00:29:53.848Z,-10980.56
2022-10-18T00:33:00.147Z,-10982.66
2022-10-18T00:36:07.137Z,-10986.16
2022-10-18T00:39:17.650Z,-10959.41
2022-10-18T00:42:29.403Z,-10971.59
2022-10-18T00:45:35.787Z,-10959.69
2022-10-18T00:48:42.203Z,-10965.00
2022-10-18T00:51:54.675Z,-10955.88
2022-10-18T00:55:01.779Z,-10941.03
2022-10-18T00:58:10.499Z,-10934.03
2022-10-18T01:01:16.704Z,-10934.88
2022-10-18T01:04:23.525Z,-10946.66
2022-10-18T01:07:50.355Z,-10932.38
2022-10-18T01:11:19.752Z,-10949.03
2022-10-18T01:14:41.443Z,-10952.81
2022-10-18T01:17:56.347Z,-10953.50
2022-10-18T01:21:26.357Z,-10964.03
2022-10-18T01:24:49.063Z,-10945.53
2022-10-18T01:28:01.512Z,-10952.09
2022-10-18T01:31:13.708Z,-10952.53
2022-10-18T01:34:21.619Z,-10959.13
2022-10-18T01:37:29.986Z,-10949.31
2022-10-18T01:40:37.862Z,-10954.22
2022-10-18T01:43:45.452Z,-10946.66
2022-10-18T01:46:55.458Z,-10945.38
2022-10-18T01:50:04.528Z,-10933.19
2022-10-18T01:53:24.223Z,-10933.34
2022-10-18T01:56:36.742Z,-10960.94
2022-10-18T01:59:53.242Z,-10943.56
2022-10-18T02:03:06.326Z,-10926.47
2022-10-18T02:06:20.118Z,-10915.97
2022-10-18T02:09:34.858Z,-10939.09
2022-10-18T02:12:44.746Z,-10926.75
2022-10-18T02:15:55.257Z,-10928.72
2022-10-18T02:19:11.294Z,-10925.06
2022-10-18T02:22:19.440Z,-10937.41
2022-10-18T02:25:28.721Z,-10929.28
2022-10-18T02:28:35.148Z,-10935.16
2022-10-18T02:31:45.734Z,-10947.22
2022-10-18T02:35:02.070Z,-10924.38
2022-10-18T02:38:10.909Z,-10940.91
2022-10-18T02:41:24.557Z,-10949.31
2022-10-18T02:44:30.686Z,-10946.50
2022-10-18T02:47:37.072Z,-10955.75
2022-10-18T02:50:44.870Z,-10945.25
2022-10-18T02:53:51.128Z,-10939.22
2022-10-18T02:56:57.582Z,-10947.78
2022-10-18T03:00:04.987Z,-10936.97
2022-10-18T03:03:11.354Z,-10930.69
2022-10-18T03:06:19.205Z,-10924.94
2022-10-18T03:09:25.496Z,-10940.63
2022-10-18T03:12:31.630Z,-10946.09
2022-10-18T03:15:38.169Z,-10957.00
2022-10-18T03:18:44.177Z,-10955.47
2022-10-18T03:21:51.599Z,-10960.66
2022-10-18T03:24:57.418Z,-10947.63
2022-10-18T03:28:03.940Z,-10951.69
2022-10-18T03:31:10.062Z,-10948.19
2022-10-18T03:34:17.812Z,-10952.09
2022-10-18T03:37:25.334Z,-10937.53
2022-10-18T03:43:42.244Z,-10909.94
2022-10-18T03:46:48.599Z,-10911.34
2022-10-18T03:49:57.149Z,-10905.34
2022-10-18T03:53:05.460Z,-10922.28
2022-10-18T03:56:11.611Z,-10928.72
2022-10-18T03:59:17.954Z,-10930.97
2022-10-18T04:02:24.442Z,-10924.22
2022-10-18T04:05:31.334Z,-10931.38
2022-10-18T04:08:39.183Z,-10929.97
2022-10-18T04:11:45.410Z,-10922.00
2022-10-18T04:14:51.599Z,-10932.09
2022-10-18T04:17:58.561Z,-10951.97
2022-10-18T04:21:05.042Z,-10953.78
2022-10-18T04:24:13.077Z,-10936.97
2022-10-18T04:27:19.462Z,-10948.88
2022-10-18T04:30:25.646Z,-10896.50
2022-10-18T04:33:32.065Z,-10926.47
2022-10-18T04:36:38.130Z,-10915.56
2022-10-18T04:39:51.252Z,-10921.28
2022-10-18T04:43:00.086Z,-10924.22
2022-10-18T04:46:06.703Z,-10918.06
2022-10-18T04:49:12.816Z,-10927.47
2022-10-18T04:52:19.035Z,-10935.44
2022-10-18T04:55:26.832Z,-10948.31
2022-10-18T04:58:33.823Z,-10950.84
2022-10-18T05:01:39.908Z,-10946.78
2022-10-18T05:04:46.178Z,-10943.97
2022-10-18T05:07:52.498Z,-10946.78
2022-10-18T05:11:00.942Z,-10944.41
2022-10-18T05:14:10.148Z,-10951.13
2022-10-18T05:17:16.451Z,-10938.25
2022-10-18T05:20:22.792Z,-10957.72
2022-10-18T05:23:29.312Z,-10950.16
2022-10-18T05:26:36.985Z,-10963.19
2022-10-18T05:29:42.977Z,-10941.59
2022-10-18T05:32:49.447Z,-10958.13
2022-10-18T05:35:55.790Z,-10950.84
2022-10-18T05:39:05.175Z,-10978.47
2022-10-18T05:42:13.320Z,-10981.25
2022-10-18T05:45:19.273Z,-10990.09
2022-10-18T05:48:25.650Z,-10985.31
2022-10-18T05:51:31.654Z,-11020.50
2022-10-18T05:54:37.908Z,-11023.59
2022-10-18T05:57:50.218Z,-11023.03
2022-10-18T06:00:56.209Z,-11007.75
2022-10-18T06:04:02.576Z,-11002.16
2022-10-18T06:07:10.591Z,-11022.34
2022-10-18T06:10:17.164Z,-11030.19
2022-10-18T06:13:24.964Z,-11033.97
2022-10-18T06:16:32.587Z,-11046.88
2022-10-18T06:19:39.067Z,-11049.56
2022-10-18T06:22:45.176Z,-11056.16
2022-10-18T06:25:51.433Z,-11064.16
2022-10-18T06:28:59.320Z,-11069.75
2022-10-18T06:32:06.835Z,-11079.88
2022-10-18T06:35:13.089Z,-11073.56
2022-10-18T06:38:19.579Z,-11088.56
2022-10-18T06:41:25.760Z,-11084.22
2022-10-18T06:44:33.737Z,-11075.09
2022-10-18T06:47:39.784Z,-11087.03
2022-10-18T06:50:52.763Z,-11101.78
2022-10-18T06:54:16.382Z,-11109.06
2022-10-18T06:57:24.040Z,-11112.44
2022-10-18T07:00:31.640Z,-11112.44
2022-10-18T07:03:38.056Z,-11121.00
2022-10-18T07:06:44.234Z,-11130.84
2022-10-18T07:09:50.835Z,-11136.88
2022-10-18T07:13:13.528Z,-11134.63
2022-10-18T07:16:25.280Z,-11145.31
2022-10-18T07:19:31.527Z,-11151.50
2022-10-18T07:22:38.307Z,-11160.06
2022-10-18T07:25:45.005Z,-11155.72
2022-10-18T07:28:54.657Z,-11170.34
2022-10-18T07:32:02.690Z,-11171.88
2022-10-18T07:35:09.500Z,-11185.38
2022-10-18T07:38:15.731Z,-11192.81
2022-10-18T07:41:22.399Z,-11180.72
2022-10-18T07:44:28.555Z,-11185.22
2022-10-18T07:47:36.498Z,-11181.00
2022-10-18T07:50:42.631Z,-11204.06
2022-10-18T07:53:49.333Z,-11194.22
2022-10-18T07:56:55.609Z,-11206.31
2022-10-18T08:00:01.752Z,-11215.03
2022-10-18T08:03:09.560Z,-11223.75
2022-10-18T08:06:18.653Z,-11226.28
2022-10-18T08:09:24.792Z,-11229.37
2022-10-18T08:12:30.783Z,-11231.78
2022-10-18T08:15:37.402Z,-11237.28
2022-10-18T08:18:45.498Z,-11247.13
2022-10-18T08:21:51.847Z,-11257.25
2022-10-18T08:24:58.138Z,-11247.13
2022-10-18T08:28:04.260Z,-11264.72
2022-10-18T08:31:14.473Z,-11264.00
2022-10-18T08:34:22.155Z,-11283.13
2022-10-18T08:37:28.078Z,-11294.13
2022-10-18T08:40:35.792Z,-11305.38
2022-10-18T08:43:47.991Z,-11309.31
2022-10-18T08:46:57.575Z,-11324.53
2022-10-18T08:50:08.837Z,-11316.78
2022-10-18T08:53:18.963Z,-11322.41
2022-10-18T08:56:25.129Z,-11335.22
2022-10-18T08:59:39.299Z,-11338.19
2022-10-18T09:02:59.543Z,-11340.72
2022-10-18T09:06:21.224Z,-11345.38
2022-10-18T09:09:39.568Z,-11347.22
2022-10-18T09:13:13.725Z,-11346.50
2022-10-18T09:16:23.334Z,-11347.63
2022-10-18T09:19:47.570Z,-11366.22
2022-10-18T09:22:57.925Z,-11360.72
2022-10-18T09:26:11.669Z,-11363.69
2022-10-18T09:29:41.328Z,-11382.28
2022-10-18T09:32:52.948Z,-11390.19
2022-10-18T09:36:03.654Z,-11394.13
2022-10-18T09:39:15.384Z,-11400.47
2022-10-18T09:42:29.878Z,-11382.72
2022-10-18T09:45:38.787Z,-11386.50
2022-10-18T09:48:50.501Z,-11386.38
2022-10-18T09:51:56.770Z,-11405.53
2022-10-18T09:55:10.518Z,-11407.78
2022-10-18T09:58:18.620Z,-11414.69
2022-10-18T10:01:27.165Z,-11429.66
2022-10-18T10:04:33.523Z,-11429.38
2022-10-18T10:07:44.778Z,-11425.41
2022-10-18T10:10:52.472Z,-11428.81
2022-10-18T10:14:07.649Z,-11422.88
2022-10-18T10:17:26.160Z,-11440.22
2022-10-18T10:20:36.982Z,-11439.50
2022-10-18T10:23:48.095Z,-11442.19
2022-10-18T10:27:02.955Z,-11456.28
2022-10-18T10:30:24.231Z,-11462.22
2022-10-18T10:33:34.384Z,-11457.41
2022-10-18T10:36:48.673Z,-11448.09
2022-10-18T10:40:26.505Z,-11473.50
2022-10-18T10:43:40.282Z,-11468.28
2022-10-18T10:46:49.362Z,-11460.38
2022-10-18T10:49:57.960Z,-11464.88
2022-10-18T10:53:04.167Z,-11482.94
2022-10-18T10:56:22.456Z,-11477.03
2022-10-18T10:59:32.857Z,-11490.97
2022-10-18T11:02:39.074Z,-11499.72
2022-10-18T11:05:47.571Z,-11485.34
2022-10-18T11:08:57.458Z,-11485.47
2022-10-18T11:12:13.151Z,-11504.09
2022-10-18T11:15:28.740Z,-11502.97
2022-10-18T11:18:36.583Z,-11487.03
2022-10-18T11:21:43.697Z,-11497.59
2022-10-18T11:24:50.067Z,-11504.81
2022-10-18T11:28:03.499Z,-11524.41
2022-10-18T11:31:20.017Z,-11523.28
2022-10-18T11:34:46.652Z,-11514.81
2022-10-18T11:38:07.053Z,-11514.53
2022-10-18T11:41:27.515Z,-11516.22
2022-10-18T11:44:40.973Z,-11524.97
2022-10-18T11:47:56.210Z,-11536.28
2022-10-18T11:51:11.246Z,-11542.75
2022-10-18T11:54:47.606Z,-11546.44
2022-10-18T11:58:01.666Z,-11543.47
2022-10-18T12:01:19.207Z,-11530.75
2022-10-18T12:04:34.995Z,-11534.56
2022-10-18T12:07:48.923Z,-11526.66
2022-10-18T12:11:05.111Z,-11527.38
2022-10-18T12:14:22.320Z,-11548.53
2022-10-18T12:17:44.035Z,-11554.34
2022-10-18T12:21:00.639Z,-11568.59
2022-10-18T12:24:12.112Z,-11561.94
2022-10-18T12:27:19.279Z,-11560.53
2022-10-18T12:30:32.783Z,-11571.84
2022-10-18T12:33:41.762Z,-11558.84
2022-10-18T12:37:00.836Z,-11551.78
2022-10-18T12:40:17.000Z,-11565.34
2022-10-18T12:43:32.621Z,-11569.84
2022-10-18T12:46:50.965Z,-11561.66
2022-10-18T12:49:58.993Z,-11562.22
2022-10-18T12:53:17.167Z,-11565.06
2022-10-18T12:56:42.211Z,-11577.47
2022-10-18T12:59:48.604Z,-11574.94
2022-10-18T13:03:55.596Z,-11579.44
2022-10-18T13:07:21.497Z,-11579.44
2022-10-18T13:10:38.370Z,-11594.97
2022-10-18T13:13:59.657Z,-11564.50
2022-10-18T13:17:19.160Z,-11544.03
2022-10-18T13:20:33.802Z,-11560.81
2022-10-18T13:23:48.424Z,-11555.19
2022-10-18T13:27:38.257Z,-11537.41
2022-10-18T13:30:52.496Z,-11559.69
2022-10-18T13:34:19.206Z,-11534.44
2022-10-18T13:37:26.615Z,-11563.34
2022-10-18T13:40:34.092Z,-11542.19
2022-10-18T13:44:21.868Z,-11551.78
2022-10-18T13:47:37.399Z,-11535.69
2022-10-18T13:50:45.915Z,-11545.72
2022-10-18T13:53:59.182Z,-11535.13
2022-10-18T13:57:24.029Z,-11517.63
2022-10-18T14:00:49.035Z,-11527.09
2022-10-18T14:04:28.085Z,-11526.13
2022-10-18T14:07:35.594Z,-11542.19
2022-10-18T14:11:01.801Z,-11549.53
2022-10-18T14:14:16.655Z,-11537.13
2022-10-18T14:17:31.280Z,-11525.53
2022-10-18T14:20:55.328Z,-11516.66
2022-10-18T14:24:20.298Z,-11495.06
2022-10-18T14:27:28.004Z,-11494.50
2022-10-18T14:30:34.147Z,-11488.59
2022-10-18T14:33:43.455Z,-11503.41
2022-10-18T14:36:51.670Z,-11457.00
2022-10-18T14:39:57.950Z,-11440.78
2022-10-18T14:43:07.712Z,-11430.06
2022-10-18T14:46:21.892Z,-11417.50
2022-10-18T14:49:28.786Z,-11407.66
2022-10-18T14:52:37.425Z,-11391.88
2022-10-18T14:55:44.886Z,-11383.97
2022-10-18T14:58:54.117Z,-11380.59
2022-10-18T15:02:05.428Z,-11360.59
2022-10-18T15:05:20.968Z,-11355.94
2022-10-18T15:08:34.667Z,-11348.47
2022-10-18T15:11:42.787Z,-11344.81
2022-10-18T15:14:50.408Z,-11337.06
2022-10-18T15:17:58.225Z,-11336.09
2022-10-18T15:21:22.731Z,-11318.06
2022-10-18T15:24:36.646Z,-11302.16
2022-10-18T15:27:48.108Z,-11287.34
2022-10-18T15:30:58.054Z,-11281.16
2022-10-18T15:34:17.064Z,-11284.41
2022-10-18T15:37:35.502Z,-11273.84
2022-10-18T15:40:44.888Z,-11267.09
2022-10-18T15:43:51.595Z,-11257.09
2022-10-18T15:47:20.282Z,-11240.78
2022-10-18T15:50:39.753Z,-11240.06
2022-10-18T15:53:51.603Z,-11235.31
2022-10-18T15:56:59.424Z,-11238.66
2022-10-18T16:00:09.227Z,-11229.53
2022-10-18T16:03:16.279Z,-11227.13
2022-10-18T16:06:22.151Z,-11251.63
2022-10-18T16:09:29.896Z,-11257.38
2022-10-18T16:12:37.356Z,-11247.25
2022-10-18T16:15:43.444Z,-11228.53
2022-10-18T16:18:50.011Z,-11239.66
2022-10-18T16:21:56.339Z,-11230.78
2022-10-18T16:25:02.358Z,-11248.81
2022-10-18T16:28:14.496Z,-11241.91
2022-10-18T16:31:22.264Z,-11233.75
2022-10-18T16:34:28.656Z,-11227.56
2022-10-18T16:37:34.790Z,-11236.28
2022-10-18T16:40:41.493Z,-11180.31
2022-10-18T16:43:50.663Z,-11184.81
2022-10-18T16:46:57.229Z,-11168.37
2022-10-18T16:50:08.332Z,-11168.94
2022-10-18T16:53:14.414Z,-11171.47
2022-10-18T16:56:22.717Z,-11167.25
2022-10-18T16:59:31.796Z,-11166.25
2022-10-18T17:02:37.718Z,-11159.78
2022-10-18T17:05:44.523Z,-11160.78
2022-10-18T17:08:50.986Z,-11168.94
2022-10-18T17:11:57.322Z,-11172.72
2022-10-18T17:15:05.703Z,-11171.75
2022-10-18T17:18:14.229Z,-11170.75
2022-10-18T17:21:20.811Z,-11180.59
2022-10-18T17:24:27.193Z,-11171.88
2022-10-18T17:27:33.497Z,-11170.06
2022-10-18T17:30:41.083Z,-11164.16
2022-10-18T17:33:47.176Z,-11158.53
2022-10-18T17:36:53.542Z,-11151.22
2022-10-18T17:39:59.746Z,-11135.19
2022-10-18T17:43:06.275Z,-11131.25
2022-10-18T17:46:14.364Z,-11124.66
2022-10-18T17:49:22.155Z,-11135.63
2022-10-18T17:52:28.643Z,-11126.78
2022-10-18T17:55:35.442Z,-11133.66
2022-10-18T17:58:43.578Z,-11117.78
2022-10-18T18:01:51.170Z,-11124.94
2022-10-18T18:04:57.471Z,-11124.25
2022-10-18T18:08:04.320Z,-11112.72
2022-10-18T18:11:10.798Z,-11111.75
2022-10-18T18:14:17.587Z,-11113.56
2022-10-18T18:17:33.973Z,-11107.81
2022-10-18T18:20:54.614Z,-11103.47
2022-10-18T18:24:01.572Z,-11105.72
2022-10-18T18:27:07.711Z,-11111.75
2022-10-18T18:30:15.543Z,-11115.41
2022-10-18T18:33:22.980Z,-11107.13
2022-10-18T18:36:30.153Z,-11100.50
2022-10-18T18:39:39.378Z,-11093.91
2022-10-18T18:42:56.776Z,-11099.81
2022-10-18T18:46:12.687Z,-11093.78
2022-10-18T18:49:20.410Z,-11092.22
2022-10-18T18:52:26.712Z,-11091.25
2022-10-18T18:55:34.657Z,-11086.03
2022-10-18T18:58:42.647Z,-11093.91
2022-10-18T19:01:49.077Z,-11081.84
2022-10-18T19:04:56.423Z,-11077.91
2022-10-18T19:08:03.298Z,-11081.56
2022-10-18T19:11:09.867Z,-11079.44
2022-10-18T19:14:16.897Z,-11083.50
2022-10-18T19:17:23.742Z,-11081.56
2022-10-18T19:20:31.652Z,-11090.25
2022-10-18T19:23:37.901Z,-11096.56
2022-10-18T19:26:46.187Z,-11094.19
2022-10-18T19:29:52.214Z,-11094.75
2022-10-18T19:33:04.228Z,-11065.28
2022-10-18T19:36:11.714Z,-11056.72
2022-10-18T19:39:19.994Z,-11053.34
2022-10-18T19:42:30.290Z,-11063.16
2022-10-18T19:45:37.145Z,-11083.94
2022-10-18T19:48:43.558Z,-11087.44
2022-10-18T19:51:51.425Z,-11081.00
2022-10-18T19:54:57.755Z,-11070.03
2022-10-18T19:58:04.363Z,-11076.06
2022-10-18T20:01:10.459Z,-11055.44
2022-10-18T20:04:17.454Z,-11058.25
2022-10-18T20:07:24.976Z,-11057.13
2022-10-18T20:10:31.319Z,-11050.41
2022-10-18T20:13:38.621Z,-11051.50
2022-10-18T20:16:45.019Z,-11050.81
2022-10-18T20:19:51.282Z,-11049.00
2022-10-18T20:22:58.975Z,-11045.22
2022-10-18T20:26:07.911Z,-11042.97
2022-10-18T20:29:14.307Z,-11048.56
2022-10-18T20:32:20.505Z,-11043.38
2022-10-18T20:35:26.935Z,-11038.75
2022-10-18T20:38:36.290Z,-11038.06
2022-10-18T20:41:42.865Z,-11032.72
2022-10-18T20:44:49.543Z,-11033.00
2022-10-18T20:47:56.560Z,-11044.94
2022-10-18T20:51:05.278Z,-11050.69
2022-10-18T20:54:13.414Z,-11048.28
2022-10-18T20:57:19.784Z,-11042.69
2022-10-18T21:00:25.897Z,-11040.28
2022-10-18T21:03:32.000Z,-11038.06
2022-10-18T21:06:41.435Z,-11044.78
2022-10-18T21:09:49.227Z,-11039.44
2022-10-18T21:12:55.152Z,-11028.50
2022-10-18T21:16:01.727Z,-11048.72
2022-10-18T21:19:09.599Z,-11032.28
2022-10-18T21:22:15.815Z,-11029.06
2022-10-18T21:25:23.245Z,-11031.31
2022-10-18T21:28:29.208Z,-11048.00
2022-10-18T21:31:36.938Z,-11033.56
2022-10-18T21:34:42.986Z,-11036.09
2022-10-18T21:37:49.022Z,-11040.72
2022-10-18T21:40:56.715Z,-11033.56
2022-10-18T21:44:05.610Z,-11035.53
2022-10-18T21:47:15.422Z,-11042.97
2022-10-18T21:50:21.701Z,-11022.47
2022-10-18T21:53:27.908Z,-11018.13
2022-10-18T21:56:36.838Z,-11007.19
2022-10-18T21:59:43.467Z,-11002.84
2022-10-18T22:02:49.588Z,-10999.47
2022-10-18T22:06:01.375Z,-10994.44
2022-10-18T22:09:09.094Z,-11022.62
2022-10-18T22:12:16.616Z,-11022.91
2022-10-18T22:15:22.732Z,-11017.00
2022-10-18T22:18:28.793Z,-11021.34
2022-10-18T22:21:35.776Z,-11007.91
2022-10-18T22:24:41.785Z,-11015.59
2022-10-18T22:27:49.635Z,-11021.22
2022-10-18T22:30:55.928Z,-11024.03
2022-10-18T22:34:04.287Z,-11004.53
2022-10-18T22:37:10.310Z,-11000.03
2022-10-18T22:40:16.663Z,-10989.25
2022-10-18T22:43:24.507Z,-11000.47
2022-10-18T22:46:30.633Z,-11006.22
2022-10-18T22:49:36.849Z,-11013.38
2022-10-18T22:52:43.223Z,-11002.97
2022-10-18T22:55:49.878Z,-10995.41
2022-10-18T22:58:57.468Z,-10995.28
2022-10-18T23:02:03.567Z,-11002.44
2022-10-18T23:05:10.172Z,-10974.09
2022-10-18T23:08:16.239Z,-10969.34
2022-10-18T23:11:23.067Z,-10975.22
2022-10-18T23:14:30.326Z,-10981.81
2022-10-18T23:17:36.618Z,-10989.66
2022-10-18T23:20:43.071Z,-10992.06
2022-10-18T23:23:49.449Z,-11010.28
2022-10-18T23:26:55.663Z,-11013.09
2022-10-18T23:30:03.289Z,-11010.13
2022-10-18T23:33:10.081Z,-10994.28
2022-10-18T23:36:16.472Z,-11007.19
2022-10-18T23:39:22.771Z,-11006.34
2022-10-18T23:42:29.169Z,-10979.72
2022-10-18T23:45:37.066Z,-10968.78
2022-10-18T23:48:43.784Z,-10972.84
2022-10-18T23:51:49.779Z,-10989.38
2022-10-18T23:54:56.180Z,-10980.00
2022-10-18T23:58:02.726Z,-10973.56
